Time;durP1;ratioP1;P1;durP2;ratioP2;P2;SDS_P1;SDS_P2;PMS_P1;PMS_P2;Temp;Humidity;BMP_temperature;BMP_pressure;BME280_temperature;BME280_humidity;BME280_pressure;Samples;Min_cycle;Max_cycle;Signal;HPM_P1;HPM_P2
2023/05/26 00:01:16;;;;;;;;;;;;;;;17.69;86.15;102791.50;5054008;28;19924;-52
2023/05/26 00:03:44;;;;;;;;;;;;;;;17.70;85.85;102782.34;5054173;28;19917;-52
2023/05/26 00:06:11;;;;;;;;;;;;;;;17.34;88.27;102790.38;5057550;28;19924;-54
2023/05/26 00:08:37;;;;;;;;;;;;;;;17.68;86.30;102800.63;5055599;28;20004;-56
2023/05/26 00:11:03;;;;;;;;;;;;;;;17.55;86.93;102796.81;5055041;28;19921;-56
2023/05/26 00:13:29;;;;;;;;;;;;;;;17.60;87.00;102791.63;5038756;28;19912;-51
2023/05/26 00:15:54;;;;;;;;;;;;;;;17.04;92.44;102785.06;5058888;28;19923;-57
2023/05/26 00:18:20;;;;;;;;;;;;;;;17.41;89.82;102790.41;5053834;28;19976;-51
2023/05/26 00:20:45;;;;;;;;;;;;;;;17.44;89.33;102791.91;5054847;28;19916;-55
2023/05/26 00:23:11;;;;;;;;;;;;;;;17.41;89.56;102795.00;5055626;28;19917;-52
2023/05/26 00:25:36;;;;;;;;;;;;;;;17.55;88.13;102801.38;5053562;28;19920;-52
2023/05/26 00:28:02;;;;;;;;;;;;;;;17.44;89.17;102791.91;5054742;28;19935;-55
2023/05/26 00:30:28;;;;;;;;;;;;;;;17.11;91.92;102800.53;5059485;28;19975;-53
2023/05/26 00:32:53;;;;;;;;;;;;;;;17.25;91.83;102796.91;5056465;28;19980;-57
2023/05/26 00:35:19;;;;;;;;;;;;;;;17.22;91.94;102791.91;5036805;28;19917;-54
2023/05/26 00:37:44;;;;;;;;;;;;;;;17.26;91.82;102812.09;5056402;28;19913;-53
2023/05/26 00:40:10;;;;;;;;;;;;;;;16.98;94.34;102804.75;5057591;28;20344;-54
2023/05/26 00:42:36;;;;;;;;;;;;;;;17.00;94.48;102805.38;5055560;28;19920;-55
2023/05/26 00:45:03;;;;;;;;;;;;;;;17.01;94.66;102801.66;5057053;28;19924;-55
2023/05/26 00:47:28;;;;;;;;;;;;;;;17.04;94.44;102798.56;5039343;28;19921;-57
2023/05/26 00:49:54;;;;;;;;;;;;;;;16.87;96.18;102794.41;5041014;28;19913;-56
2023/05/26 00:52:20;;;;;;;;;;;;;;;16.78;97.29;102802.59;5043172;28;19913;-53
2023/05/26 00:54:46;;;;;;;;;;;;;;;16.90;96.04;102802.13;5035887;28;19913;-52
2023/05/26 00:57:12;;;;;;;;;;;;;;;16.83;95.84;102806.59;5058605;28;19921;-57
2023/05/26 00:59:37;;;;;;;;;;;;;;;16.62;98.90;102808.25;5053498;28;19915;-56
2023/05/26 01:02:02;;;;;;;;;;;;;;;16.69;98.27;102802.91;5053305;28;19913;-55
2023/05/26 01:04:29;;;;;;;;;;;;;;;16.72;97.63;102806.06;5037781;28;19924;-56
2023/05/26 01:06:55;;;;;;;;;;;;;;;16.71;98.26;102796.28;5053288;28;20003;-55
2023/05/26 01:09:21;;;;;;;;;;;;;;;16.47;100.00;102800.13;5056869;28;19921;-58
2023/05/26 01:11:47;;;;;;;;;;;;;;;16.49;99.48;102801.63;5055336;28;19913;-58
2023/05/26 01:14:12;;;;;;;;;;;;;;;16.48;100.00;102807.19;5053138;28;19924;-55
2023/05/26 01:16:42;;;;;;;;;;;;;;;16.56;100.00;102806.28;5039586;28;19944;-55
2023/05/26 01:19:35;;;;;;;;;;;;;;;16.43;100.00;102804.22;5037651;28;19981;-56
2023/05/26 01:22:27;;;;;;;;;;;;;;;16.45;100.00;102813.84;5053167;28;19913;-52
2023/05/26 01:25:11;;;;;;;;;;;;;;;16.37;100.00;102805.81;5010291;28;21324;-56
2023/05/26 01:27:56;;;;;;;;;;;;;;;16.34;100.00;102803.47;5050920;28;19919;-54
2023/05/26 01:30:21;;;;;;;;;;;;;;;16.31;100.00;102812.81;5035714;28;19948;-56
2023/05/26 01:32:47;;;;;;;;;;;;;;;16.40;100.00;102810.84;5058134;28;19984;-53
2023/05/26 01:35:13;;;;;;;;;;;;;;;16.32;100.00;102810.94;5041272;28;19983;-53
2023/05/26 01:37:40;;;;;;;;;;;;;;;16.27;100.00;102816.91;5058511;28;19913;-56
2023/05/26 01:40:06;;;;;;;;;;;;;;;16.19;100.00;102817.84;5060515;28;19913;-54
2023/05/26 01:42:36;;;;;;;;;;;;;;;16.08;100.00;102812.88;5060409;28;19972;-52
2023/05/26 01:45:07;;;;;;;;;;;;;;;16.13;100.00;102809.63;5059201;28;19917;-53
2023/05/26 01:47:34;;;;;;;;;;;;;;;17.15;98.06;102823.44;5058549;28;19919;-52
2023/05/26 01:50:01;;;;;;;;;;;;;;;16.18;100.00;102821.56;5038998;28;19955;-56
2023/05/26 01:52:27;;;;;;;;;;;;;;;16.00;100.00;102831.84;5062374;28;19920;-58
2023/05/26 01:54:57;;;;;;;;;;;;;;;15.90;100.00;102818.63;5058220;28;19935;-56
2023/05/26 01:57:23;;;;;;;;;;;;;;;15.93;100.00;102820.13;5039176;28;19920;-52
2023/05/26 01:59:50;;;;;;;;;;;;;;;15.93;100.00;102829.03;5058292;28;19913;-55
2023/05/26 02:02:17;;;;;;;;;;;;;;;15.97;100.00;102826.81;5042253;28;19917;-53
2023/05/26 02:04:42;;;;;;;;;;;;;;;15.88;100.00;102826.03;5059015;28;19945;-54
2023/05/26 02:07:08;;;;;;;;;;;;;;;15.96;100.00;102830.53;5040560;28;19984;-56
2023/05/26 02:09:33;;;;;;;;;;;;;;;15.90;100.00;102838.31;5044159;28;19952;-56
2023/05/26 02:12:00;;;;;;;;;;;;;;;15.80;100.00;102837.72;5036781;28;19912;-52
2023/05/26 02:14:26;;;;;;;;;;;;;;;15.81;100.00;102831.31;5038968;28;19928;-53
2023/05/26 02:16:52;;;;;;;;;;;;;;;15.82;100.00;102834.84;5038701;28;19912;-54
2023/05/26 02:19:18;;;;;;;;;;;;;;;15.72;100.00;102835.91;5042079;28;19941;-55
2023/05/26 02:21:44;;;;;;;;;;;;;;;15.67;100.00;102834.78;5040461;28;19972;-50
2023/05/26 02:24:10;;;;;;;;;;;;;;;15.70;100.00;102842.53;5057891;28;19917;-50
2023/05/26 02:26:35;;;;;;;;;;;;;;;15.72;100.00;102837.78;5040455;28;19920;-49
2023/05/26 02:29:01;;;;;;;;;;;;;;;15.76;100.00;102849.91;5055664;28;19913;-53
2023/05/26 02:31:26;;;;;;;;;;;;;;;15.71;100.00;102849.59;5057580;28;19920;-51
2023/05/26 02:33:53;;;;;;;;;;;;;;;15.52;100.00;102846.38;5038438;28;19976;-52
2023/05/26 02:36:18;;;;;;;;;;;;;;;15.69;100.00;102847.06;5055294;28;19912;-52
2023/05/26 02:38:44;;;;;;;;;;;;;;;15.64;100.00;102844.09;5057638;28;19917;-50
2023/05/26 02:41:10;;;;;;;;;;;;;;;15.63;100.00;102839.72;5057225;28;19935;-53
2023/05/26 02:43:38;;;;;;;;;;;;;;;15.58;100.00;102850.22;5040137;28;19917;-51
2023/05/26 02:46:03;;;;;;;;;;;;;;;15.56;100.00;102850.38;5057099;28;19920;-52
2023/05/26 02:48:29;;;;;;;;;;;;;;;15.55;100.00;102843.31;5057520;28;19976;-55
2023/05/26 02:50:59;;;;;;;;;;;;;;;15.53;100.00;102845.34;5055057;28;19913;-52
2023/05/26 02:53:24;;;;;;;;;;;;;;;15.53;100.00;102845.34;5040833;28;19913;-53
2023/05/26 02:55:50;;;;;;;;;;;;;;;15.54;100.00;102847.03;5037982;28;19923;-53
2023/05/26 02:58:16;;;;;;;;;;;;;;;15.60;100.00;102846.31;5057030;28;19914;-52
2023/05/26 03:00:41;;;;;;;;;;;;;;;15.56;100.00;102839.59;5057131;28;19913;-53
2023/05/26 03:03:07;;;;;;;;;;;;;;;15.48;100.00;102834.28;5057738;28;19913;-52
2023/05/26 03:05:32;;;;;;;;;;;;;;;15.50;100.00;102843.00;5038030;28;19952;-50
2023/05/26 03:07:58;;;;;;;;;;;;;;;15.42;100.00;102843.06;5040766;28;19927;-56
2023/05/26 03:10:24;;;;;;;;;;;;;;;15.36;100.00;102836.53;5056710;28;19955;-54
2023/05/26 03:12:49;;;;;;;;;;;;;;;15.10;100.00;102839.56;5038701;28;19913;-53
2023/05/26 03:15:15;;;;;;;;;;;;;;;15.10;100.00;102834.16;5058513;28;20058;-51
2023/05/26 03:17:40;;;;;;;;;;;;;;;15.22;100.00;102846.19;5039693;28;19913;-51
2023/05/26 03:20:06;;;;;;;;;;;;;;;15.29;100.00;102846.34;5054280;28;19955;-51
2023/05/26 03:22:32;;;;;;;;;;;;;;;15.28;100.00;102844.66;5039749;28;19920;-50
2023/05/26 03:24:57;;;;;;;;;;;;;;;15.20;100.00;102837.47;5056519;28;19917;-54
2023/05/26 03:27:32;;;;;;;;;;;;;;;15.13;100.00;102842.75;5039148;28;19976;-51
2023/05/26 03:29:57;;;;;;;;;;;;;;;15.22;100.00;102846.19;5056266;28;19920;-55
2023/05/26 03:32:23;;;;;;;;;;;;;;;15.19;100.00;102842.03;5038074;28;19912;-53
2023/05/26 03:34:49;;;;;;;;;;;;;;;15.14;100.00;102846.25;5056067;28;19974;-54
2023/05/26 03:37:15;;;;;;;;;;;;;;;15.20;100.00;102853.63;5037035;28;19917;-51
2023/05/26 03:39:42;;;;;;;;;;;;;;;15.19;100.00;102851.94;5036828;28;19917;-54
2023/05/26 03:42:08;;;;;;;;;;;;;;;15.12;100.00;102864.47;5054585;28;19923;-52
2023/05/26 03:44:34;;;;;;;;;;;;;;;15.08;100.00;102863.13;5036728;28;19988;-55
2023/05/26 03:47:01;;;;;;;;;;;;;;;15.14;100.00;102867.81;5036538;28;19959;-55
2023/05/26 03:49:26;;;;;;;;;;;;;;;15.17;100.00;102860.22;5037298;28;19916;-55
2023/05/26 03:51:53;;;;;;;;;;;;;;;15.17;100.00;102862.94;5036715;28;19924;-55
2023/05/26 03:54:18;;;;;;;;;;;;;;;15.13;100.00;102871.53;5054079;28;19917;-53
2023/05/26 03:56:44;;;;;;;;;;;;;;;15.09;100.00;102864.81;5034135;28;19974;-55
2023/05/26 03:59:09;;;;;;;;;;;;;;;14.89;100.00;102867.94;5036189;28;19932;-55
2023/05/26 04:01:36;;;;;;;;;;;;;;;14.99;100.00;102863.19;5034324;28;19917;-52
2023/05/26 04:04:02;;;;;;;;;;;;;;;14.89;100.00;102867.94;5040079;28;19917;-58
2023/05/26 04:06:30;;;;;;;;;;;;;;;15.08;100.00;102872.06;5043172;28;19963;-55
2023/05/26 04:08:58;;;;;;;;;;;;;;;15.17;100.00;102867.47;5037499;28;19917;-54
2023/05/26 04:11:25;;;;;;;;;;;;;;;14.97;100.00;102859.81;5036396;28;19912;-51
2023/05/26 04:13:50;;;;;;;;;;;;;;;14.99;100.00;102862.34;5059691;28;19978;-54
2023/05/26 04:16:17;;;;;;;;;;;;;;;15.10;100.00;102870.00;5061414;28;19919;-55
2023/05/26 04:18:42;;;;;;;;;;;;;;;15.06;100.00;102868.69;5035999;28;19913;-53
2023/05/26 04:21:08;;;;;;;;;;;;;;;15.00;100.00;102869.41;5038810;28;19923;-53
2023/05/26 04:23:34;;;;;;;;;;;;;;;14.94;100.00;102872.81;5056548;28;19928;-51
2023/05/26 04:26:00;;;;;;;;;;;;;;;15.08;100.00;102877.44;5041797;28;19912;-53
2023/05/26 04:28:45;;;;;;;;;;;;;;;15.25;100.00;102875.53;5055221;28;19919;-53
2023/05/26 04:31:29;;;;;;;;;;;;;;;15.02;100.00;102873.63;5043908;28;19923;-55
2023/05/26 04:34:15;;;;;;;;;;;;;;;15.40;100.00;102882.84;5056230;28;19913;-53
2023/05/26 04:36:48;;;;;;;;;;;;;;;15.51;100.00;102887.84;5059263;28;19913;-53
2023/05/26 04:39:14;;;;;;;;;;;;;;;15.47;100.00;102892.72;5060419;28;19948;-54
2023/05/26 04:41:41;;;;;;;;;;;;;;;15.39;100.00;102889.25;5044375;28;19917;-50
2023/05/26 04:44:07;;;;;;;;;;;;;;;15.42;100.00;102886.19;5058280;28;19924;-55
2023/05/26 04:46:37;;;;;;;;;;;;;;;15.57;100.00;102897.03;5045238;28;19913;-54
2023/05/26 04:49:04;;;;;;;;;;;;;;;15.74;100.00;102897.78;5057614;28;19912;-52
2023/05/26 04:51:32;;;;;;;;;;;;;;;15.67;100.00;102896.81;5040578;28;19963;-55
2023/05/26 04:53:58;;;;;;;;;;;;;;;15.77;100.00;102894.72;5039026;28;19943;-52
2023/05/26 04:56:26;;;;;;;;;;;;;;;15.71;100.00;102892.75;5021443;28;19897;-54
2023/05/26 04:58:56;;;;;;;;;;;;;;;15.60;100.00;102892.16;5038249;28;19944;-53
2023/05/26 05:01:21;;;;;;;;;;;;;;;15.71;100.00;102890.06;5039620;28;19913;-56
2023/05/26 05:04:10;;;;;;;;;;;;;;;15.89;100.00;102895.19;5045130;28;19939;-51
2023/05/26 05:06:41;;;;;;;;;;;;;;;15.66;100.00;102906.78;5037618;28;19920;-49
2023/05/26 05:09:07;;;;;;;;;;;;;;;15.61;100.00;102901.91;5039993;28;19920;-51
2023/05/26 05:11:33;;;;;;;;;;;;;;;15.85;100.00;102905.44;5036750;28;19913;-53
2023/05/26 05:13:59;;;;;;;;;;;;;;;15.90;100.00;102900.38;5042272;28;19928;-56
2023/05/26 05:16:24;;;;;;;;;;;;;;;16.03;100.00;102907.03;5038523;28;19913;-55
2023/05/26 05:18:50;;;;;;;;;;;;;;;16.17;100.00;102911.66;5038484;28;19928;-53
2023/05/26 05:21:16;;;;;;;;;;;;;;;16.17;100.00;102913.50;5036599;28;19944;-53
2023/05/26 05:23:42;;;;;;;;;;;;;;;16.55;100.00;102920.72;5043538;28;19917;-52
2023/05/26 05:26:08;;;;;;;;;;;;;;;16.58;100.00;102933.88;5040868;28;20788;-53
2023/05/26 05:28:35;;;;;;;;;;;;;;;16.74;98.17;102922.91;5039049;28;19923;-55
2023/05/26 05:31:06;;;;;;;;;;;;;;;16.68;98.57;102931.75;5038432;28;19914;-49
2023/05/26 05:33:32;;;;;;;;;;;;;;;16.73;97.35;102939.31;5040850;28;19917;-51
2023/05/26 05:35:58;;;;;;;;;;;;;;;16.70;97.19;102940.50;5037800;28;19920;-54
2023/05/26 05:38:23;;;;;;;;;;;;;;;16.69;95.91;102933.44;5037490;28;19917;-54
2023/05/26 05:40:49;;;;;;;;;;;;;;;16.60;96.58;102937.22;5039627;28;19913;-50
2023/05/26 05:43:14;;;;;;;;;;;;;;;16.72;96.29;102948.41;5037631;28;19913;-52
2023/05/26 05:45:41;;;;;;;;;;;;;;;16.86;94.97;102944.06;5037888;28;19926;-51
2023/05/26 05:48:15;;;;;;;;;;;;;;;16.86;94.52;102941.34;5039120;28;19917;-50
2023/05/26 05:50:56;;;;;;;;;;;;;;;16.91;93.71;102941.63;5039879;28;19920;-52
2023/05/26 05:53:22;;;;;;;;;;;;;;;16.68;95.40;102942.56;5039999;28;19914;-54
2023/05/26 05:55:47;;;;;;;;;;;;;;;16.74;95.12;102947.22;5036974;28;19920;-52
2023/05/26 05:58:13;;;;;;;;;;;;;;;16.79;93.99;102949.38;5037703;28;19924;-55
2023/05/26 06:00:39;;;;;;;;;;;;;;;16.86;93.60;102954.88;5034870;28;19913;-53
2023/05/26 06:03:05;;;;;;;;;;;;;;;17.02;92.39;102945.75;5039286;28;19921;-54
2023/05/26 06:05:30;;;;;;;;;;;;;;;16.88;93.29;102948.22;5039839;28;19925;-53
2023/05/26 06:07:56;;;;;;;;;;;;;;;16.94;92.63;102946.66;5041574;28;19936;-52
2023/05/26 06:10:22;;;;;;;;;;;;;;;17.15;90.65;102953.22;5057266;28;19920;-53
2023/05/26 06:12:47;;;;;;;;;;;;;;;17.35;89.19;102950.75;5042077;28;19924;-52
2023/05/26 06:15:13;;;;;;;;;;;;;;;17.00;90.99;102948.63;5059316;28;19917;-54
2023/05/26 06:17:38;;;;;;;;;;;;;;;16.88;91.95;102958.22;5041296;28;19917;-53
2023/05/26 06:20:04;;;;;;;;;;;;;;;17.15;89.49;102948.63;5040837;28;19913;-54
2023/05/26 06:22:29;;;;;;;;;;;;;;;17.42;88.35;102950.84;5038637;28;19935;-53
2023/05/26 06:24:55;;;;;;;;;;;;;;;17.23;89.52;102950.38;5060280;28;19917;-55
2023/05/26 06:27:21;;;;;;;;;;;;;;;17.28;90.00;102953.34;5038199;28;19917;-55
2023/05/26 06:29:47;;;;;;;;;;;;;;;17.48;88.46;102955.47;5040096;28;19925;-56
2023/05/26 06:32:12;;;;;;;;;;;;;;;17.75;86.42;102947.66;5058107;28;20159;-56
2023/05/26 06:34:38;;;;;;;;;;;;;;;17.55;87.58;102945.59;5038235;28;19913;-55
2023/05/26 06:37:04;;;;;;;;;;;;;;;17.81;85.48;102955.00;5038023;28;19912;-56
2023/05/26 06:39:30;;;;;;;;;;;;;;;17.69;86.03;102951.13;5037868;28;19996;-56
2023/05/26 06:41:56;;;;;;;;;;;;;;;17.90;84.72;102955.72;5037848;28;19917;-57
2023/05/26 06:44:23;;;;;;;;;;;;;;;17.88;84.08;102955.91;5037937;28;19913;-56
2023/05/26 06:46:49;;;;;;;;;;;;;;;17.79;84.99;102948.97;5038004;28;19916;-57
2023/05/26 06:49:24;;;;;;;;;;;;;;;17.64;83.99;102951.69;5036474;28;19927;-54
2023/05/26 06:51:53;;;;;;;;;;;;;;;17.90;83.23;102961.97;5038438;28;19913;-55
2023/05/26 06:54:18;;;;;;;;;;;;;;;17.79;83.48;102959.78;5041031;28;19920;-56
2023/05/26 06:56:43;;;;;;;;;;;;;;;18.42;80.67;102958.28;5042275;28;19920;-57
2023/05/26 06:59:09;;;;;;;;;;;;;;;18.68;78.16;102965.75;5037248;28;19939;-56
2023/05/26 07:01:35;;;;;;;;;;;;;;;18.71;77.50;102965.38;5037259;28;19963;-53
2023/05/26 07:04:02;;;;;;;;;;;;;;;18.80;76.34;102973.34;5037401;28;19984;-57
2023/05/26 07:06:28;;;;;;;;;;;;;;;19.03;74.22;102976.66;5037212;28;19928;-56
2023/05/26 07:08:54;;;;;;;;;;;;;;;18.96;72.95;102967.63;5028091;28;19925;-55
2023/05/26 07:11:24;;;;;;;;;;;;;;;19.08;72.45;102975.19;5015683;28;19914;-56
2023/05/26 07:13:53;;;;;;;;;;;;;;;18.87;73.09;102972.34;5020502;28;19968;-54
2023/05/26 07:16:19;;;;;;;;;;;;;;;19.02;72.42;102980.41;5018868;28;19913;-53
2023/05/26 07:18:45;;;;;;;;;;;;;;;19.38;70.77;102964.09;5017311;28;20042;-54
2023/05/26 07:21:11;;;;;;;;;;;;;;;19.20;71.02;102965.47;5016626;28;19913;-57
2023/05/26 07:23:36;;;;;;;;;;;;;;;19.21;70.24;102967.16;5014498;28;19920;-55
2023/05/26 07:26:03;;;;;;;;;;;;;;;19.01;69.26;102973.31;5016873;28;19940;-56
2023/05/26 07:28:28;;;;;;;;;;;;;;;19.19;69.08;102974.66;5019487;28;19913;-56
2023/05/26 07:30:54;;;;;;;;;;;;;;;19.06;69.41;102976.25;5018681;28;19969;-56
2023/05/26 07:33:26;;;;;;;;;;;;;;;19.62;67.13;102977.09;5016845;28;19941;-53
2023/05/26 07:35:53;;;;;;;;;;;;;;;19.46;66.86;102975.56;5019111;28;19960;-52
2023/05/26 07:38:20;;;;;;;;;;;;;;;19.27;66.94;102969.03;5015223;28;19917;-56
2023/05/26 07:40:45;;;;;;;;;;;;;;;19.59;66.64;102965.81;5025008;28;20001;-55
2023/05/26 07:43:14;;;;;;;;;;;;;;;19.23;67.83;102965.06;5018615;28;20027;-50
2023/05/26 07:45:40;;;;;;;;;;;;;;;19.33;67.22;102959.25;5019726;28;19928;-49
2023/05/26 07:48:06;;;;;;;;;;;;;;;19.68;65.59;102964.56;5018271;28;19914;-49
2023/05/26 07:50:31;;;;;;;;;;;;;;;19.59;65.80;102963.09;5018837;28;19923;-52
2023/05/26 07:52:56;;;;;;;;;;;;;;;19.84;64.97;102960.66;5018181;28;19914;-51
2023/05/26 07:55:22;;;;;;;;;;;;;;;20.09;64.52;102959.25;5016828;28;19913;-55
2023/05/26 07:57:47;;;;;;;;;;;;;;;20.01;63.79;102960.28;5015584;28;19972;-56
2023/05/26 08:00:13;;;;;;;;;;;;;;;19.87;63.63;102954.81;5016143;28;19944;-52
2023/05/26 08:02:39;;;;;;;;;;;;;;;20.01;62.83;102958.41;5016792;28;19913;-53
2023/05/26 08:05:05;;;;;;;;;;;;;;;20.14;62.32;102959.44;5019260;28;20118;-52
2023/05/26 08:07:31;;;;;;;;;;;;;;;20.39;61.18;102956.09;5017308;28;19913;-53
2023/05/26 08:09:56;;;;;;;;;;;;;;;20.07;62.76;102962.19;5053235;28;19917;-54
2023/05/26 08:12:22;;;;;;;;;;;;;;;20.49;62.01;102964.69;5038343;28;19987;-53
2023/05/26 08:14:48;;;;;;;;;;;;;;;20.36;60.74;102962.81;5055844;28;19917;-51
2023/05/26 08:17:14;;;;;;;;;;;;;;;20.31;61.49;102960.72;5039663;28;19941;-54
2023/05/26 08:19:39;;;;;;;;;;;;;;;20.12;62.10;102951.53;5057893;28;19932;-51
2023/05/26 08:22:05;;;;;;;;;;;;;;;20.53;60.49;102954.19;5059232;28;19917;-53
2023/05/26 08:24:30;;;;;;;;;;;;;;;20.43;59.44;102957.38;5056114;28;19948;-51
2023/05/26 08:26:56;;;;;;;;;;;;;;;19.95;60.94;102948.34;5053351;28;19939;-50
2023/05/26 08:29:22;;;;;;;;;;;;;;;20.10;60.32;102953.63;5055266;28;19972;-53
2023/05/26 08:31:49;;;;;;;;;;;;;;;20.45;60.48;102964.25;5053196;28;19913;-52
2023/05/26 08:34:15;;;;;;;;;;;;;;;20.56;57.90;102962.78;5038566;28;19948;-51
2023/05/26 08:36:41;;;;;;;;;;;;;;;20.76;58.47;102962.75;5055035;28;19932;-54
2023/05/26 08:39:06;;;;;;;;;;;;;;;20.97;57.50;102968.16;5055459;28;19912;-51
2023/05/26 08:41:35;;;;;;;;;;;;;;;20.70;59.01;102962.78;5054361;28;19909;-54
2023/05/26 08:44:03;;;;;;;;;;;;;;;20.61;59.24;102965.69;5055306;28;19924;-56
2023/05/26 08:46:31;;;;;;;;;;;;;;;21.28;57.65;102969.28;5053504;28;19913;-56
2023/05/26 08:48:57;;;;;;;;;;;;;;;21.51;56.73;102952.44;5053569;28;19921;-56
2023/05/26 08:51:22;;;;;;;;;;;;;;;21.37;57.02;102962.56;5059230;28;19944;-56
2023/05/26 08:53:48;;;;;;;;;;;;;;;21.48;55.26;102959.16;5055423;28;19913;-53
2023/05/26 08:56:13;;;;;;;;;;;;;;;21.80;54.49;102963.81;5054429;28;19913;-54
2023/05/26 08:58:38;;;;;;;;;;;;;;;21.95;53.70;102958.06;5055245;28;19913;-52
2023/05/26 09:01:04;;;;;;;;;;;;;;;22.15;54.32;102957.91;5058934;28;19936;-54
2023/05/26 09:03:30;;;;;;;;;;;;;;;21.72;54.62;102953.19;5053442;28;19919;-53
2023/05/26 09:05:55;;;;;;;;;;;;;;;21.76;54.00;102965.31;5053151;28;19924;-54
2023/05/26 09:08:21;;;;;;;;;;;;;;;22.01;53.48;102957.16;5054649;28;19920;-52
2023/05/26 09:10:46;;;;;;;;;;;;;;;21.82;53.15;102960.88;5055521;28;19935;-53
2023/05/26 09:13:17;;;;;;;;;;;;;;;22.54;51.73;102959.69;5054633;28;19917;-51
2023/05/26 09:15:48;;;;;;;;;;;;;;;22.86;50.37;102963.13;5055029;28;19913;-54
2023/05/26 09:18:13;;;;;;;;;;;;;;;22.70;50.55;102956.38;5055115;28;19955;-53
2023/05/26 09:20:43;;;;;;;;;;;;;;;23.02;49.59;102961.66;5054701;28;19956;-55
2023/05/26 09:23:10;;;;;;;;;;;;;;;23.24;49.32;102969.38;5055045;28;19919;-51
2023/05/26 09:25:36;;;;;;;;;;;;;;;23.16;49.35;102961.50;5056066;28;19925;-55
2023/05/26 09:28:03;;;;;;;;;;;;;;;23.34;47.39;102961.53;5053557;28;19984;-53
2023/05/26 09:30:34;;;;;;;;;;;;;;;23.83;46.04;102965.22;5056653;28;19913;-51
2023/05/26 09:33:00;;;;;;;;;;;;;;;24.28;46.21;102958.44;5049150;28;19913;-51
2023/05/26 09:35:25;;;;;;;;;;;;;;;24.46;45.60;102969.28;5056588;28;19927;-52
2023/05/26 09:37:51;;;;;;;;;;;;;;;24.74;45.62;102953.16;5051704;28;19967;-54
2023/05/26 09:40:20;;;;;;;;;;;;;;;24.81;46.73;102967.59;5054864;28;19919;-55
2023/05/26 09:42:47;;;;;;;;;;;;;;;25.58;43.80;102973.78;5054743;28;19917;-54
2023/05/26 09:45:13;;;;;;;;;;;;;;;25.83;43.66;102971.75;5054715;28;19921;-56
2023/05/26 09:47:39;;;;;;;;;;;;;;;26.94;40.10;102972.06;5054691;28;19935;-53
2023/05/26 09:50:04;;;;;;;;;;;;;;;27.61;38.55;102972.81;5036135;28;19936;-52
2023/05/26 09:52:32;;;;;;;;;;;;;;;27.87;38.60;102973.03;5059002;28;19920;-54
2023/05/26 09:54:58;;;;;;;;;;;;;;;28.56;39.53;102966.94;5057106;28;19913;-57
2023/05/26 09:57:25;;;;;;;;;;;;;;;28.58;37.82;102964.75;5058667;28;19936;-55
2023/05/26 09:59:53;;;;;;;;;;;;;;;29.52;36.55;102971.44;5058340;28;20255;-54
2023/05/26 10:02:20;;;;;;;;;;;;;;;30.18;34.67;102978.91;5055965;28;20000;-54
2023/05/26 10:04:46;;;;;;;;;;;;;;;30.39;32.30;102976.09;5055960;28;19928;-55
2023/05/26 10:07:12;;;;;;;;;;;;;;;29.68;33.78;102973.13;5057737;28;19924;-57
2023/05/26 10:09:38;;;;;;;;;;;;;;;30.84;33.65;102975.44;5058108;28;19917;-57
2023/05/26 10:12:06;;;;;;;;;;;;;;;31.51;33.51;102980.59;5040745;28;19951;-57
2023/05/26 10:14:31;;;;;;;;;;;;;;;32.27;30.62;102980.22;5060040;28;20320;-55
2023/05/26 10:16:57;;;;;;;;;;;;;;;32.16;30.22;102981.44;5059614;28;19913;-55
2023/05/26 10:19:22;;;;;;;;;;;;;;;32.28;30.38;102981.03;5061752;28;19988;-56
2023/05/26 10:21:53;;;;;;;;;;;;;;;32.38;30.78;102974.59;5059535;28;19969;-55
2023/05/26 10:24:32;;;;;;;;;;;;;;;32.31;30.22;102966.63;5059856;28;20384;-53
2023/05/26 10:27:03;;;;;;;;;;;;;;;32.37;29.23;102962.72;5055146;28;19913;-54
2023/05/26 10:29:33;;;;;;;;;;;;;;;33.07;29.67;102956.88;5036513;28;19913;-55
2023/05/26 10:31:58;;;;;;;;;;;;;;;33.73;29.06;102965.28;5055756;28;19927;-55
2023/05/26 10:34:38;;;;;;;;;;;;;;;33.77;29.52;102958.00;5059723;28;19952;-54
2023/05/26 10:37:12;;;;;;;;;;;;;;;33.69;27.54;102955.94;5056984;28;19921;-57
2023/05/26 10:39:38;;;;;;;;;;;;;;;34.11;27.01;102962.38;5057990;28;19939;-56
2023/05/26 10:42:15;;;;;;;;;;;;;;;34.04;28.13;102959.19;5058174;28;19940;-59
2023/05/26 10:44:41;;;;;;;;;;;;;;;34.06;27.96;102958.91;5055553;28;19943;-57
2023/05/26 10:47:12;;;;;;;;;;;;;;;34.34;26.63;102959.72;5059147;28;19951;-57
2023/05/26 10:49:38;;;;;;;;;;;;;;;34.20;26.61;102954.16;5055797;28;19921;-54
2023/05/26 10:52:12;;;;;;;;;;;;;;;34.56;25.85;102955.44;5059336;28;19913;-55
2023/05/26 10:54:37;;;;;;;;;;;;;;;34.40;25.75;102964.06;5058954;28;19913;-58
2023/05/26 10:57:03;;;;;;;;;;;;;;;35.24;25.30;102958.38;5058600;28;19932;-57
2023/05/26 10:59:31;;;;;;;;;;;;;;;35.53;26.33;102959.09;5061542;28;19919;-56
2023/05/26 11:02:00;;;;;;;;;;;;;;;35.80;25.45;102958.13;5058956;28;19957;-59
2023/05/26 11:04:38;;;;;;;;;;;;;;;35.63;23.23;102961.63;5055678;28;19924;-57
2023/05/26 11:07:04;;;;;;;;;;;;;;;36.08;23.59;102957.13;5056489;28;19919;-58
2023/05/26 11:09:31;;;;;;;;;;;;;;;36.13;24.74;102955.03;5054909;28;19917;-58
2023/05/26 11:11:57;;;;;;;;;;;;;;;36.66;25.69;102943.25;5060391;28;20000;-57
2023/05/26 11:14:24;;;;;;;;;;;;;;;36.64;23.12;102960.28;5054901;28;19909;-59
2023/05/26 11:16:51;;;;;;;;;;;;;;;36.67;24.21;102945.69;5056908;28;19966;-57
2023/05/26 11:19:26;;;;;;;;;;;;;;;37.15;23.06;102952.31;5060466;28;19913;-57
2023/05/26 11:21:52;;;;;;;;;;;;;;;37.68;23.89;102945.84;5056925;28;19921;-58
2023/05/26 11:24:17;;;;;;;;;;;;;;;37.73;22.44;102943.69;5041187;28;19917;-58
2023/05/26 11:26:43;;;;;;;;;;;;;;;37.67;20.73;102947.81;5058835;28;19921;-58
2023/05/26 11:29:08;;;;;;;;;;;;;;;38.54;20.75;102948.59;5060262;28;19913;-56
2023/05/26 11:31:35;;;;;;;;;;;;;;;37.94;21.25;102936.53;5056520;28;20539;-56
2023/05/26 11:34:00;;;;;;;;;;;;;;;38.48;19.88;102949.13;5060023;28;19936;-59
2023/05/26 11:36:26;;;;;;;;;;;;;;;38.47;20.54;102939.09;5058506;28;19920;-59
2023/05/26 11:38:56;;;;;;;;;;;;;;;38.64;19.89;102941.78;5059983;28;19920;-58
2023/05/26 11:41:25;;;;;;;;;;;;;;;38.92;19.93;102937.66;5055849;28;19913;-59
2023/05/26 11:43:53;;;;;;;;;;;;;;;39.30;20.36;102929.06;5054574;28;19928;-59
2023/05/26 11:46:20;;;;;;;;;;;;;;;39.16;18.80;102942.53;5055833;28;19917;-59
2023/05/26 11:48:45;;;;;;;;;;;;;;;39.77;18.98;102943.03;5055952;28;19917;-59
2023/05/26 11:51:13;;;;;;;;;;;;;;;40.33;18.95;102939.72;5056484;28;19917;-58
2023/05/26 11:53:39;;;;;;;;;;;;;;;40.51;18.13;102954.31;5057091;28;19912;-60
2023/05/26 11:56:08;;;;;;;;;;;;;;;39.76;18.80;102942.25;5054223;28;19944;-59
2023/05/26 11:58:36;;;;;;;;;;;;;;;40.15;17.88;102950.34;5057906;28;19912;-58
2023/05/26 12:01:02;;;;;;;;;;;;;;;39.72;18.20;102947.72;5055387;28;19920;-58
2023/05/26 12:03:29;;;;;;;;;;;;;;;39.51;19.22;102938.56;5054796;28;19912;-59
2023/05/26 12:06:05;;;;;;;;;;;;;;;40.19;18.00;102942.84;5057543;28;19924;-59
2023/05/26 12:08:41;;;;;;;;;;;;;;;39.38;17.86;102932.97;5030626;28;19928;-59
2023/05/26 12:11:13;;;;;;;;;;;;;;;40.61;19.26;102936.16;5014240;28;19948;-60
2023/05/26 12:13:39;;;;;;;;;;;;;;;40.93;18.32;102930.69;5014822;28;19913;-59
2023/05/26 12:16:16;;;;;;;;;;;;;;;40.72;17.37;102930.91;5019391;28;19928;-60
2023/05/26 12:18:41;;;;;;;;;;;;;;;40.55;17.98;102934.75;5016598;28;19918;-58
2023/05/26 12:21:10;;;;;;;;;;;;;;;40.69;18.80;102925.97;5016700;28;19981;-59
2023/05/26 12:23:35;;;;;;;;;;;;;;;40.86;17.94;102933.31;5014066;28;19913;-57
2023/05/26 12:26:01;;;;;;;;;;;;;;;40.51;17.51;102931.03;5022308;28;19913;-59
2023/05/26 12:28:27;;;;;;;;;;;;;;;41.97;16.71;102928.19;5017560;28;19952;-58
2023/05/26 12:30:54;;;;;;;;;;;;;;;40.75;17.99;102923.75;5017356;28;19913;-59
2023/05/26 12:33:19;;;;;;;;;;;;;;;41.78;18.32;102921.38;5018480;28;19917;-58